Crotts Aircraft Service, Inc.
Current METAR for KDDC
KDDC 230852Z AUTO 21004KT 8SM CLR 22/16 A3018 RMK AO2 SLP185 T02170156 50000